Time;durP1;ratioP1;P1;durP2;ratioP2;P2;SDS_P1;SDS_P2;PMS_P1;PMS_P2;Temp;Humidity;BMP_temperature;BMP_pressure;BME280_temperature;BME280_humidity;BME280_pressure;Samples;Min_cycle;Max_cycle;Signal;HPM_P1;HPM_P2
2021/03/18 00:02:23;;;;;;;10.63;6.63;;;;;;;;;;4979881;28;20058;-82
2021/03/18 00:04:49;;;;;;;9.15;5.80;;;;;;;;;;4980263;28;20387;-83
2021/03/18 00:07:15;;;;;;;9.98;5.55;;;;;;;;;;4989844;28;20053;-83
2021/03/18 00:09:41;;;;;;;9.20;6.18;;;;;;;;;;4993640;28;20046;-83
2021/03/18 00:12:08;;;;;;;10.52;6.68;;;;;;;;;;4980839;28;20054;-83
2021/03/18 00:14:34;;;;;;;10.75;6.63;;;;;;;;;;4981001;28;20458;-83
2021/03/18 00:16:59;;;;;;;9.20;5.82;;;;;;;;;;4981348;28;20051;-82
2021/03/18 00:19:26;;;;;;;10.77;6.18;;;;;;;;;;4980140;28;20118;-83
2021/03/18 00:21:53;;;;;;;11.90;6.32;;;;;;;;;;4979664;28;20047;-83
2021/03/18 00:24:19;;;;;;;10.88;6.75;;;;;;;;;;4980455;28;20050;-83
2021/03/18 00:26:45;;;;;;;11.43;6.32;;;;;;;;;;4995747;28;20043;-83
2021/03/18 00:29:11;;;;;;;12.55;6.65;;;;;;;;;;4989111;28;20153;-83
2021/03/18 00:31:37;;;;;;;9.75;6.43;;;;;;;;;;4981353;28;20050;-83
2021/03/18 00:34:04;;;;;;;9.45;6.43;;;;;;;;;;4996023;28;20054;-82
2021/03/18 00:36:30;;;;;;;7.95;5.65;;;;;;;;;;5000003;28;20047;-83
2021/03/18 00:38:57;;;;;;;10.55;6.63;;;;;;;;;;4990918;28;20050;-83
2021/03/18 00:41:24;;;;;;;9.65;5.50;;;;;;;;;;4980391;28;20047;-83
2021/03/18 00:43:50;;;;;;;13.40;8.48;;;;;;;;;;5003562;28;20057;-82
2021/03/18 00:46:16;;;;;;;12.73;7.25;;;;;;;;;;4985769;28;20047;-83
2021/03/18 00:48:42;;;;;;;10.80;6.90;;;;;;;;;;4998591;28;20053;-83
2021/03/18 00:51:12;;;;;;;10.38;6.47;;;;;;;;;;4982207;28;20057;-82
2021/03/18 00:53:39;;;;;;;13.48;8.93;;;;;;;;;;4998565;28;20108;-83
2021/03/18 00:56:11;;;;;;;11.38;7.60;;;;;;;;;;4980266;28;20106;-82
2021/03/18 00:58:38;;;;;;;11.90;7.63;;;;;;;;;;4971300;28;20058;-83
2021/03/18 01:01:05;;;;;;;12.65;7.53;;;;;;;;;;4980023;28;20415;-83
2021/03/18 01:03:32;;;;;;;13.48;8.13;;;;;;;;;;4980306;28;20062;-83
2021/03/18 01:06:01;;;;;;;14.02;7.20;;;;;;;;;;4979081;28;20057;-83
2021/03/18 01:08:30;;;;;;;11.00;7.07;;;;;;;;;;4962508;28;20539;-82
2021/03/18 01:10:57;;;;;;;11.90;7.22;;;;;;;;;;4979824;28;20047;-82
2021/03/18 01:13:24;;;;;;;9.82;6.55;;;;;;;;;;4990083;28;20047;-83
2021/03/18 01:15:52;;;;;;;12.50;7.15;;;;;;;;;;4991949;28;20073;-82
2021/03/18 01:18:19;;;;;;;11.10;6.00;;;;;;;;;;4989516;28;20042;-83
2021/03/18 01:20:46;;;;;;;9.65;6.13;;;;;;;;;;4992211;28;20054;-82
2021/03/18 01:23:12;;;;;;;10.45;6.78;;;;;;;;;;4997312;28;20058;-82
2021/03/18 01:25:38;;;;;;;7.95;5.82;;;;;;;;;;4979552;28;20125;-83
2021/03/18 01:28:05;;;;;;;10.00;6.63;;;;;;;;;;4980085;28;20139;-83
2021/03/18 01:30:32;;;;;;;9.75;6.15;;;;;;;;;;4981131;28;20042;-83
2021/03/18 01:32:59;;;;;;;9.88;6.55;;;;;;;;;;4988470;28;20042;-83
2021/03/18 01:35:25;;;;;;;8.52;6.20;;;;;;;;;;4978979;28;20046;-83
2021/03/18 01:37:51;;;;;;;13.60;6.88;;;;;;;;;;4980906;28;20503;-82
2021/03/18 01:40:21;;;;;;;9.13;5.63;;;;;;;;;;4984195;28;20058;-83
2021/03/18 01:42:47;;;;;;;11.40;7.28;;;;;;;;;;4992584;28;20050;-83
2021/03/18 01:45:14;;;;;;;13.27;7.32;;;;;;;;;;4992308;28;20380;-82
2021/03/18 01:47:43;;;;;;;11.48;6.90;;;;;;;;;;4984662;28;20046;-82
2021/03/18 01:50:11;;;;;;;12.93;7.32;;;;;;;;;;4982630;28;20058;-82
2021/03/18 01:52:37;;;;;;;10.75;7.22;;;;;;;;;;4979571;28;20047;-83
2021/03/18 01:55:04;;;;;;;13.65;7.35;;;;;;;;;;4980070;28;20388;-83
2021/03/18 01:57:30;;;;;;;12.77;7.82;;;;;;;;;;4979415;28;20043;-83
2021/03/18 01:59:57;;;;;;;11.20;7.25;;;;;;;;;;4979926;28;20053;-83
2021/03/18 02:02:23;;;;;;;10.15;7.30;;;;;;;;;;4978463;28;20046;-83
2021/03/18 02:04:50;;;;;;;12.95;8.52;;;;;;;;;;4999178;28;20046;-83
2021/03/18 02:07:16;;;;;;;10.77;6.72;;;;;;;;;;4989599;28;20054;-83
2021/03/18 02:09:43;;;;;;;11.57;7.03;;;;;;;;;;4999402;28;20050;-83
2021/03/18 02:12:09;;;;;;;13.70;6.88;;;;;;;;;;4991131;28;20050;-83
2021/03/18 02:14:35;;;;;;;11.48;6.88;;;;;;;;;;4978715;28;20510;-83
2021/03/18 02:17:04;;;;;;;11.02;7.05;;;;;;;;;;4978683;28;20051;-83
2021/03/18 02:19:44;;;;;;;11.30;7.75;;;;;;;;;;4997480;28;20053;-83
2021/03/18 02:22:32;;;;;;;10.13;5.93;;;;;;;;;;4971829;28;20102;-82
2021/03/18 02:25:01;;;;;;;12.65;6.72;;;;;;;;;;4979183;28;20061;-83
2021/03/18 02:28:00;;;;;;;10.10;6.82;;;;;;;;;;4979525;28;20105;-83
2021/03/18 02:30:44;;;;;;;15.38;7.95;;;;;;;;;;4979644;28;20499;-83
2021/03/18 02:33:27;;;;;;;10.85;7.10;;;;;;;;;;4978783;28;20051;-83
2021/03/18 02:35:56;;;;;;;13.20;7.40;;;;;;;;;;4978459;28;20094;-83
2021/03/18 02:38:24;;;;;;;10.63;6.90;;;;;;;;;;4978813;28;20050;-82
2021/03/18 02:40:53;;;;;;;13.95;7.03;;;;;;;;;;4978953;28;20051;-83
2021/03/18 02:43:22;;;;;;;12.32;7.18;;;;;;;;;;4977381;28;20050;-83
2021/03/18 02:45:49;;;;;;;12.43;6.32;;;;;;;;;;4977519;28;20047;-83
2021/03/18 02:48:19;;;;;;;14.90;7.65;;;;;;;;;;4978578;28;20057;-83
2021/03/18 02:50:46;;;;;;;16.27;7.93;;;;;;;;;;4975841;28;20578;-83
2021/03/18 02:53:16;;;;;;;13.25;7.35;;;;;;;;;;4979646;28;20043;-83
2021/03/18 02:55:43;;;;;;;13.90;8.02;;;;;;;;;;4978456;28;20058;-82
2021/03/18 02:58:12;;;;;;;14.50;7.75;;;;;;;;;;4979945;28;20050;-83
2021/03/18 03:00:38;;;;;;;11.82;6.55;;;;;;;;;;4984451;28;20058;-83
2021/03/18 03:03:04;;;;;;;12.45;7.22;;;;;;;;;;4990466;28;20054;-83
2021/03/18 03:05:30;;;;;;;15.55;9.05;;;;;;;;;;4997783;28;20120;-83
2021/03/18 03:07:57;;;;;;;18.75;9.18;;;;;;;;;;4979702;28;20066;-83
2021/03/18 03:10:23;;;;;;;13.18;8.02;;;;;;;;;;4990696;28;20049;-83
2021/03/18 03:12:50;;;;;;;14.75;9.07;;;;;;;;;;5000731;28;20232;-84
2021/03/18 03:15:17;;;;;;;14.23;8.57;;;;;;;;;;4983526;28;20047;-84
2021/03/18 03:17:43;;;;;;;13.88;8.45;;;;;;;;;;4988793;28;20046;-83
2021/03/18 03:20:12;;;;;;;14.38;8.38;;;;;;;;;;4985001;28;20450;-83
2021/03/18 03:22:39;;;;;;;11.77;7.53;;;;;;;;;;4986366;28;20051;-83
2021/03/18 03:25:06;;;;;;;13.65;8.02;;;;;;;;;;4983603;28;20057;-83
2021/03/18 03:27:33;;;;;;;13.05;7.65;;;;;;;;;;4981431;28;20054;-83
2021/03/18 03:29:59;;;;;;;16.33;8.20;;;;;;;;;;4978809;28;20495;-82
2021/03/18 03:32:25;;;;;;;14.13;7.85;;;;;;;;;;4980184;28;20447;-83
2021/03/18 03:34:51;;;;;;;11.63;7.18;;;;;;;;;;4983945;28;20051;-83
2021/03/18 03:37:17;;;;;;;12.38;7.22;;;;;;;;;;4980054;28;20055;-83
2021/03/18 03:39:44;;;;;;;15.50;8.63;;;;;;;;;;4959770;28;20427;-83
2021/03/18 03:42:11;;;;;;;13.68;7.80;;;;;;;;;;4976314;28;20046;-82
2021/03/18 03:44:39;;;;;;;15.85;8.77;;;;;;;;;;4977511;28;20089;-82
2021/03/18 03:47:05;;;;;;;15.65;8.60;;;;;;;;;;4977816;28;20054;-83
2021/03/18 03:49:32;;;;;;;14.90;7.80;;;;;;;;;;4976310;28;20052;-83
2021/03/18 03:52:07;;;;;;;16.17;8.52;;;;;;;;;;4977624;28;20396;-83
2021/03/18 03:54:37;;;;;;;15.43;8.68;;;;;;;;;;4977758;28;20051;-83
2021/03/18 03:57:06;;;;;;;20.63;10.48;;;;;;;;;;4978578;28;20062;-83
2021/03/18 03:59:36;;;;;;;16.63;9.48;;;;;;;;;;4976986;28;20050;-82
2021/03/18 04:02:04;;;;;;;18.50;9.43;;;;;;;;;;4977303;28;20078;-83
2021/03/18 04:04:34;;;;;;;15.73;8.07;;;;;;;;;;4978695;28;20058;-83
2021/03/18 04:07:01;;;;;;;15.27;8.80;;;;;;;;;;4978722;28;20058;-83
2021/03/18 04:09:29;;;;;;;18.80;9.13;;;;;;;;;;4977821;28;20431;-83
2021/03/18 04:11:56;;;;;;;17.63;9.00;;;;;;;;;;4976907;28;20051;-83
2021/03/18 04:14:25;;;;;;;17.40;10.38;;;;;;;;;;4978001;28;20046;-83
2021/03/18 04:16:52;;;;;;;18.77;9.15;;;;;;;;;;4978230;28;20077;-83
2021/03/18 04:19:20;;;;;;;16.35;9.07;;;;;;;;;;4977885;28;20050;-83
2021/03/18 04:21:49;;;;;;;17.02;8.98;;;;;;;;;;4977189;28;20054;-83
2021/03/18 04:24:15;;;;;;;15.73;8.40;;;;;;;;;;4977747;28;20054;-83
2021/03/18 04:26:42;;;;;;;17.38;8.55;;;;;;;;;;4979454;28;20095;-83
2021/03/18 04:29:08;;;;;;;19.83;9.23;;;;;;;;;;4980947;28;20098;-83
2021/03/18 04:31:37;;;;;;;16.50;8.60;;;;;;;;;;4980327;28;20106;-83
2021/03/18 04:34:03;;;;;;;13.18;8.13;;;;;;;;;;4980037;28;20450;-83
2021/03/18 04:36:31;;;;;;;15.40;9.25;;;;;;;;;;4981391;28;20054;-83
2021/03/18 04:38:59;;;;;;;18.50;8.98;;;;;;;;;;4983556;28;20054;-83
2021/03/18 04:41:25;;;;;;;14.98;8.13;;;;;;;;;;4980905;28;20047;-84
2021/03/18 04:43:52;;;;;;;15.18;8.27;;;;;;;;;;4980540;28;20050;-83
2021/03/18 04:46:18;;;;;;;15.27;8.82;;;;;;;;;;4991090;28;20054;-83
2021/03/18 04:48:45;;;;;;;18.58;8.95;;;;;;;;;;4982877;28;20047;-82
2021/03/18 04:51:11;;;;;;;16.15;9.32;;;;;;;;;;4980782;28;20047;-83
2021/03/18 04:53:39;;;;;;;15.23;8.50;;;;;;;;;;4980431;28;20419;-82
2021/03/18 04:56:05;;;;;;;14.95;7.47;;;;;;;;;;4983888;28;20050;-83
2021/03/18 04:58:33;;;;;;;17.30;9.43;;;;;;;;;;4985000;28;20057;-83
2021/03/18 05:01:01;;;;;;;18.42;11.63;;;;;;;;;;4989667;28;20069;-82
2021/03/18 05:03:27;;;;;;;21.52;11.57;;;;;;;;;;4984296;28;20062;-82
2021/03/18 05:05:55;;;;;;;19.40;11.30;;;;;;;;;;4986113;28;20043;-82
2021/03/18 05:08:23;;;;;;;22.73;11.98;;;;;;;;;;4981788;28;20047;-81
2021/03/18 05:10:50;;;;;;;22.50;12.40;;;;;;;;;;4981340;28;20049;-83
2021/03/18 05:13:16;;;;;;;18.77;10.75;;;;;;;;;;4981307;28;20050;-83
2021/03/18 05:15:43;;;;;;;17.30;9.35;;;;;;;;;;4980971;28;20124;-82
2021/03/18 05:18:10;;;;;;;19.88;8.80;;;;;;;;;;4998107;28;20047;-82
2021/03/18 05:20:36;;;;;;;16.95;9.85;;;;;;;;;;4985066;28;20043;-82
2021/03/18 05:23:03;;;;;;;16.95;9.88;;;;;;;;;;4982326;28;20483;-83
2021/03/18 05:25:31;;;;;;;15.82;9.60;;;;;;;;;;4979093;28;20109;-82
2021/03/18 05:27:58;;;;;;;21.27;11.13;;;;;;;;;;4980029;28;20046;-82
2021/03/18 05:30:27;;;;;;;16.15;8.50;;;;;;;;;;4980093;28;20098;-83
2021/03/18 05:32:53;;;;;;;17.13;8.55;;;;;;;;;;4979872;28;20109;-82
2021/03/18 05:35:19;;;;;;;17.42;10.05;;;;;;;;;;4980088;28;20047;-82
2021/03/18 05:37:45;;;;;;;18.27;9.35;;;;;;;;;;4980012;28;20050;-82
2021/03/18 05:40:14;;;;;;;24.17;9.63;;;;;;;;;;4981691;28;20062;-81
2021/03/18 05:42:40;;;;;;;17.30;8.70;;;;;;;;;;4981460;28;20046;-81
2021/03/18 05:45:10;;;;;;;14.48;7.97;;;;;;;;;;4989276;28;20439;-82
2021/03/18 05:47:37;;;;;;;16.42;8.48;;;;;;;;;;4964089;29;20047;-81
2021/03/18 05:50:06;;;;;;;17.05;10.07;;;;;;;;;;4980685;28;20109;-82
2021/03/18 05:52:34;;;;;;;16.13;8.82;;;;;;;;;;4984763;28;20050;-83
2021/03/18 05:55:00;;;;;;;20.00;10.13;;;;;;;;;;4984727;28;20506;-82
2021/03/18 05:57:27;;;;;;;18.33;9.60;;;;;;;;;;4983197;28;20082;-83
2021/03/18 05:59:53;;;;;;;18.40;9.05;;;;;;;;;;4984188;28;20065;-83
2021/03/18 06:02:20;;;;;;;15.20;7.85;;;;;;;;;;4984389;28;20635;-82
2021/03/18 06:04:48;;;;;;;23.42;11.05;;;;;;;;;;4984719;28;20042;-85
2021/03/18 06:07:14;;;;;;;17.85;9.90;;;;;;;;;;4982431;28;20058;-82
2021/03/18 06:09:40;;;;;;;18.10;9.48;;;;;;;;;;4984774;28;20047;-82
2021/03/18 06:12:07;;;;;;;20.33;10.55;;;;;;;;;;4991341;28;20049;-86
2021/03/18 06:14:34;;;;;;;19.02;10.85;;;;;;;;;;4984522;28;20046;-82
2021/03/18 06:17:01;;;;;;;20.63;10.52;;;;;;;;;;4988241;28;20047;-83
2021/03/18 06:19:28;;;;;;;19.92;11.05;;;;;;;;;;4983710;28;20132;-83
2021/03/18 06:21:57;;;;;;;15.85;9.30;;;;;;;;;;4984167;28;20053;-82
2021/03/18 06:24:25;;;;;;;18.10;9.43;;;;;;;;;;4983253;28;20050;-82
2021/03/18 06:26:51;;;;;;;20.67;10.57;;;;;;;;;;4983859;28;20046;-82
2021/03/18 06:29:28;;;;;;;15.13;8.32;;;;;;;;;;4980115;28;20051;-82
2021/03/18 06:31:55;;;;;;;16.70;8.95;;;;;;;;;;4979433;28;20499;-83
2021/03/18 06:34:41;;;;;;;17.67;9.65;;;;;;;;;;4978879;28;20418;-82
2021/03/18 06:37:28;;;;;;;23.80;12.07;;;;;;;;;;4981005;28;20094;-83
2021/03/18 06:39:55;;;;;;;22.63;10.90;;;;;;;;;;4981405;28;20050;-83
2021/03/18 06:42:21;;;;;;;20.77;11.32;;;;;;;;;;4984877;28;20458;-83
2021/03/18 06:44:47;;;;;;;22.25;10.57;;;;;;;;;;4982432;28;20414;-84
2021/03/18 06:47:13;;;;;;;21.95;10.85;;;;;;;;;;4983189;28;20495;-83
2021/03/18 06:49:40;;;;;;;19.67;10.38;;;;;;;;;;4981709;28;20050;-82
2021/03/18 06:52:08;;;;;;;24.83;12.50;;;;;;;;;;4987975;28;20042;-84
2021/03/18 06:54:36;;;;;;;27.73;15.50;;;;;;;;;;4966038;28;20043;-83
2021/03/18 06:57:03;;;;;;;21.70;13.38;;;;;;;;;;4985578;28;20393;-83
2021/03/18 06:59:31;;;;;;;32.28;15.57;;;;;;;;;;4987056;28;20516;-83
2021/03/18 07:02:08;;;;;;;38.45;21.65;;;;;;;;;;4988143;28;20495;-83
2021/03/18 07:04:38;;;;;;;34.92;19.70;;;;;;;;;;4982553;28;20057;-84
2021/03/18 07:07:05;;;;;;;22.92;12.07;;;;;;;;;;4983347;28;20051;-84
2021/03/18 07:09:33;;;;;;;20.92;11.20;;;;;;;;;;4981328;28;20526;-83
2021/03/18 07:12:01;;;;;;;18.75;10.98;;;;;;;;;;4965072;28;20058;-84
2021/03/18 07:14:34;;;;;;;19.95;10.70;;;;;;;;;;4980972;28;20039;-83
2021/03/18 07:17:00;;;;;;;24.60;11.40;;;;;;;;;;4982144;28;20483;-83
2021/03/18 07:19:28;;;;;;;21.80;11.98;;;;;;;;;;4982142;28;20446;-83
2021/03/18 07:21:55;;;;;;;24.73;13.75;;;;;;;;;;4979263;28;20078;-82
2021/03/18 07:24:27;;;;;;;23.10;12.95;;;;;;;;;;4979599;28;20053;-82
2021/03/18 07:26:55;;;;;;;22.73;11.15;;;;;;;;;;4979253;28;20043;-82
2021/03/18 07:29:24;;;;;;;25.00;12.55;;;;;;;;;;4982890;28;20053;-81
2021/03/18 07:31:51;;;;;;;21.83;12.27;;;;;;;;;;4979975;28;20121;-81
2021/03/18 07:34:17;;;;;;;21.52;11.52;;;;;;;;;;4979919;28;20050;-83
2021/03/18 07:36:44;;;;;;;19.95;11.27;;;;;;;;;;4982642;28;20097;-81
2021/03/18 07:39:10;;;;;;;25.10;12.95;;;;;;;;;;4980650;28;20121;-82
2021/03/18 07:41:38;;;;;;;19.15;11.30;;;;;;;;;;4980376;28;20046;-81
2021/03/18 07:44:06;;;;;;;20.83;11.60;;;;;;;;;;4978133;28;20086;-81
2021/03/18 07:46:35;;;;;;;20.63;11.80;;;;;;;;;;4982898;28;20466;-81
2021/03/18 07:49:03;;;;;;;24.83;14.02;;;;;;;;;;4984316;28;20057;-81
2021/03/18 07:51:30;;;;;;;22.50;13.18;;;;;;;;;;4985097;28;20082;-82
2021/03/18 07:53:58;;;;;;;26.65;12.60;;;;;;;;;;4982110;28;20066;-83
2021/03/18 07:56:25;;;;;;;20.65;11.52;;;;;;;;;;4979467;28;20400;-81
2021/03/18 07:58:53;;;;;;;19.77;11.30;;;;;;;;;;4974949;28;20047;-82
2021/03/18 08:01:35;;;;;;;23.60;11.15;;;;;;;;;;4984265;28;20506;-81
2021/03/18 08:04:03;;;;;;;19.50;10.88;;;;;;;;;;4994030;28;20070;-81
2021/03/18 08:06:49;;;;;;;21.30;11.88;;;;;;;;;;4986903;28;20077;-82
2021/03/18 08:09:17;;;;;;;16.27;8.95;;;;;;;;;;4985210;28;20057;-82
2021/03/18 08:11:47;;;;;;;21.10;12.15;;;;;;;;;;4987076;28;20047;-86
2021/03/18 08:14:15;;;;;;;18.48;11.65;;;;;;;;;;4989074;28;20046;-84
2021/03/18 08:16:41;;;;;;;21.15;12.48;;;;;;;;;;4981772;28;20057;-82
2021/03/18 08:19:09;;;;;;;20.20;12.70;;;;;;;;;;4988533;28;20537;-83
2021/03/18 08:21:37;;;;;;;21.67;12.35;;;;;;;;;;4980710;28;20479;-82
2021/03/18 08:24:05;;;;;;;22.45;13.02;;;;;;;;;;4983534;28;20054;-81
2021/03/18 08:26:43;;;;;;;23.85;12.07;;;;;;;;;;4989091;28;20049;-81
2021/03/18 08:29:28;;;;;;;21.10;11.88;;;;;;;;;;4985400;28;20047;-81
2021/03/18 08:32:00;;;;;;;20.85;12.18;;;;;;;;;;4982193;28;20043;-81
2021/03/18 08:34:51;;;;;;;21.17;13.23;;;;;;;;;;4985437;28;20050;-81
2021/03/18 08:37:32;;;;;;;19.63;11.60;;;;;;;;;;4985201;28;20507;-81
2021/03/18 08:39:59;;;;;;;21.98;12.00;;;;;;;;;;4988545;28;20059;-82
2021/03/18 08:42:42;;;;;;;22.90;12.93;;;;;;;;;;4967811;28;20047;-81
2021/03/18 08:45:12;;;;;;;21.83;13.40;;;;;;;;;;4983362;28;20051;-81
2021/03/18 08:47:41;;;;;;;20.45;11.88;;;;;;;;;;4986772;28;20042;-82
2021/03/18 08:50:10;;;;;;;21.30;12.68;;;;;;;;;;4985364;28;20047;-81
2021/03/18 08:52:38;;;;;;;20.02;12.10;;;;;;;;;;4980762;28;20074;-81
2021/03/18 08:55:06;;;;;;;19.60;11.20;;;;;;;;;;4981730;28;20055;-82
2021/03/18 08:57:33;;;;;;;18.50;11.57;;;;;;;;;;4982754;28;20053;-82
2021/03/18 09:00:01;;;;;;;18.77;11.60;;;;;;;;;;4979085;28;20045;-82
2021/03/18 09:02:31;;;;;;;17.77;11.10;;;;;;;;;;4981014;28;20062;-80
2021/03/18 09:04:59;;;;;;;16.83;11.73;;;;;;;;;;4983276;28;20046;-81
2021/03/18 09:07:27;;;;;;;18.10;11.68;;;;;;;;;;4985120;28;20046;-83
2021/03/18 09:10:01;;;;;;;19.38;12.00;;;;;;;;;;4982051;28;20698;-81
2021/03/18 09:12:36;;;;;;;20.75;11.60;;;;;;;;;;4979505;28;20135;-80
2021/03/18 09:15:11;;;;;;;21.83;12.68;;;;;;;;;;4979800;28;20067;-81
2021/03/18 09:17:38;;;;;;;20.00;12.13;;;;;;;;;;4982901;28;20047;-82
2021/03/18 09:20:07;;;;;;;18.80;12.30;;;;;;;;;;4985787;28;20086;-81
2021/03/18 09:22:33;;;;;;;17.27;11.77;;;;;;;;;;4981454;28;20043;-82
2021/03/18 09:24:59;;;;;;;19.38;12.07;;;;;;;;;;4980874;28;20054;-82
2021/03/18 09:27:25;;;;;;;17.75;12.65;;;;;;;;;;4982669;28;20131;-82
2021/03/18 09:29:51;;;;;;;20.83;12.75;;;;;;;;;;4980260;28;20042;-82
2021/03/18 09:32:17;;;;;;;17.20;11.50;;;;;;;;;;4976910;28;20529;-81
2021/03/18 09:34:44;;;;;;;16.83;11.10;;;;;;;;;;4979655;28;20043;-82
2021/03/18 09:37:12;;;;;;;17.73;10.68;;;;;;;;;;4980611;28;20111;-84
2021/03/18 09:39:47;;;;;;;17.20;12.02;;;;;;;;;;4980206;28;20059;-81
2021/03/18 09:42:15;;;;;;;15.20;11.73;;;;;;;;;;4947902;28;20113;-80
2021/03/18 09:44:43;;;;;;;16.98;11.82;;;;;;;;;;4978864;28;20055;-81
2021/03/18 09:47:09;;;;;;;17.98;12.77;;;;;;;;;;4981159;28;20054;-83
2021/03/18 09:49:37;;;;;;;17.50;11.80;;;;;;;;;;4978354;28;20054;-82
2021/03/18 09:52:05;;;;;;;18.05;11.45;;;;;;;;;;4983529;28;20066;-81
2021/03/18 09:54:32;;;;;;;16.30;11.40;;;;;;;;;;4982742;28;20043;-82
2021/03/18 09:57:00;;;;;;;17.38;11.70;;;;;;;;;;4983955;28;20047;-81
2021/03/18 09:59:27;;;;;;;22.63;12.98;;;;;;;;;;4980775;28;20043;-82
2021/03/18 10:01:53;;;;;;;19.80;11.38;;;;;;;;;;4977764;28;20047;-82
2021/03/18 10:04:20;;;;;;;17.40;11.80;;;;;;;;;;4986801;28;20070;-84
2021/03/18 10:06:48;;;;;;;16.92;11.65;;;;;;;;;;4979843;28;20174;-81
2021/03/18 10:09:19;;;;;;;15.82;11.55;;;;;;;;;;4977137;28;20050;-81
2021/03/18 10:11:48;;;;;;;16.83;10.65;;;;;;;;;;4979427;28;20595;-82
2021/03/18 10:14:16;;;;;;;17.02;11.23;;;;;;;;;;4979911;28;20042;-82
2021/03/18 10:16:42;;;;;;;16.05;10.52;;;;;;;;;;4980121;28;20042;-81
2021/03/18 10:19:08;;;;;;;18.38;10.88;;;;;;;;;;4982048;28;20579;-82
2021/03/18 10:21:35;;;;;;;16.10;11.05;;;;;;;;;;4980950;28;20387;-81
2021/03/18 10:24:01;;;;;;;17.35;12.13;;;;;;;;;;4981564;28;20039;-82
2021/03/18 10:26:28;;;;;;;19.80;12.43;;;;;;;;;;4985301;28;20173;-83
2021/03/18 10:28:59;;;;;;;15.45;10.52;;;;;;;;;;4979792;28;20133;-82
2021/03/18 10:31:25;;;;;;;18.05;11.82;;;;;;;;;;4979715;28;20052;-82
2021/03/18 10:33:52;;;;;;;15.82;10.40;;;;;;;;;;4978411;28;20043;-82
2021/03/18 10:36:32;;;;;;;18.20;11.23;;;;;;;;;;4977677;28;20062;-81
2021/03/18 10:38:59;;;;;;;17.98;10.98;;;;;;;;;;4974460;28;20077;-82
2021/03/18 10:41:25;;;;;;;15.30;10.48;;;;;;;;;;4983993;28;20062;-82
2021/03/18 10:43:51;;;;;;;13.50;8.77;;;;;;;;;;4978465;28;20047;-85
2021/03/18 10:46:26;;;;;;;12.38;8.65;;;;;;;;;;4982723;28;20070;-85
2021/03/18 10:48:54;;;;;;;12.40;7.03;;;;;;;;;;4982567;28;20046;-84
2021/03/18 10:51:22;;;;;;;11.93;7.70;;;;;;;;;;4984189;28;20046;-84
2021/03/18 10:53:49;;;;;;;10.80;7.30;;;;;;;;;;4984571;28;20488;-84
2021/03/18 10:56:17;;;;;;;10.43;7.00;;;;;;;;;;4988827;28;20567;-85
2021/03/18 10:58:44;;;;;;;11.27;7.97;;;;;;;;;;4986887;28;20042;-84
2021/03/18 11:01:12;;;;;;;12.93;7.90;;;;;;;;;;4985390;28;20054;-84
2021/03/18 11:03:40;;;;;;;13.55;9.30;;;;;;;;;;4983498;28;20042;-83
2021/03/18 11:06:14;;;;;;;10.40;7.07;;;;;;;;;;4980275;28;20039;-83
2021/03/18 11:08:41;;;;;;;7.75;4.97;;;;;;;;;;4964424;28;20048;-83
2021/03/18 11:11:13;;;;;;;7.13;4.90;;;;;;;;;;4982234;28;20059;-84
2021/03/18 11:13:43;;;;;;;9.23;5.82;;;;;;;;;;4978599;28;20047;-83
2021/03/18 11:16:09;;;;;;;8.93;5.68;;;;;;;;;;4983169;28;20132;-83
2021/03/18 11:18:39;;;;;;;8.88;5.03;;;;;;;;;;4979847;28;20066;-83
2021/03/18 11:21:18;;;;;;;9.70;5.28;;;;;;;;;;4982832;28;20047;-84
2021/03/18 11:23:44;;;;;;;9.38;6.57;;;;;;;;;;4981136;28;20078;-84
2021/03/18 11:26:11;;;;;;;10.43;6.57;;;;;;;;;;4988735;28;20043;-82
2021/03/18 11:28:47;;;;;;;11.85;5.90;;;;;;;;;;4980601;28;20050;-83
2021/03/18 11:31:15;;;;;;;10.18;6.45;;;;;;;;;;4981234;28;20097;-83
2021/03/18 11:33:42;;;;;;;10.57;6.85;;;;;;;;;;4979179;28;20576;-85
2021/03/18 11:36:08;;;;;;;11.10;7.97;;;;;;;;;;4980230;28;20472;-85
2021/03/18 11:38:35;;;;;;;13.48;8.13;;;;;;;;;;4980413;28;20051;-84
2021/03/18 11:41:02;;;;;;;10.50;7.40;;;;;;;;;;4981443;28;20055;-84
2021/03/18 11:43:28;;;;;;;14.77;7.20;;;;;;;;;;4991588;28;20054;-83
2021/03/18 11:45:55;;;;;;;12.90;8.00;;;;;;;;;;4989109;28;20038;-84
2021/03/18 11:48:23;;;;;;;11.90;7.63;;;;;;;;;;4982148;28;20438;-81
2021/03/18 11:50:51;;;;;;;11.93;7.28;;;;;;;;;;4979300;28;20043;-83
2021/03/18 11:53:18;;;;;;;10.55;7.18;;;;;;;;;;4976898;28;20059;-83
2021/03/18 11:55:44;;;;;;;10.35;7.10;;;;;;;;;;4977482;28;20503;-83
2021/03/18 11:58:10;;;;;;;14.52;7.75;;;;;;;;;;4989838;28;20111;-83
2021/03/18 12:00:38;;;;;;;16.85;7.60;;;;;;;;;;4978399;28;20204;-83
2021/03/18 12:03:05;;;;;;;9.45;7.13;;;;;;;;;;4976776;28;20054;-82
2021/03/18 12:05:31;;;;;;;10.52;7.10;;;;;;;;;;4983215;28;20065;-82
2021/03/18 12:07:58;;;;;;;11.30;8.18;;;;;;;;;;4984271;28;20050;-82
2021/03/18 12:10:26;;;;;;;9.55;6.75;;;;;;;;;;4981150;28;20408;-83
2021/03/18 12:12:52;;;;;;;10.35;7.47;;;;;;;;;;4979099;28;20454;-82
2021/03/18 12:15:20;;;;;;;11.48;7.20;;;;;;;;;;4994186;28;20636;-83
2021/03/18 12:17:49;;;;;;;9.95;7.35;;;;;;;;;;4976753;28;20446;-82
2021/03/18 12:20:17;;;;;;;11.68;7.32;;;;;;;;;;4992956;28;20050;-83
2021/03/18 12:22:43;;;;;;;7.47;5.65;;;;;;;;;;4981627;28;20043;-83
2021/03/18 12:25:13;;;;;;;8.70;5.10;;;;;;;;;;4979606;28;20050;-84
2021/03/18 12:27:39;;;;;;;6.30;4.70;;;;;;;;;;4978046;28;20057;-83
2021/03/18 12:30:07;;;;;;;6.43;4.07;;;;;;;;;;4983218;28;20479;-83
2021/03/18 12:32:34;;;;;;;5.38;4.07;;;;;;;;;;4975632;28;20047;-82
2021/03/18 12:35:00;;;;;;;6.82;4.43;;;;;;;;;;4977256;28;20431;-83
2021/03/18 12:37:26;;;;;;;6.95;3.85;;;;;;;;;;4977103;28;20047;-83
2021/03/18 12:39:52;;;;;;;5.47;3.50;;;;;;;;;;4970600;28;20109;-83
2021/03/18 12:42:19;;;;;;;5.70;3.45;;;;;;;;;;4980438;28;20042;-83
2021/03/18 12:44:45;;;;;;;4.97;3.28;;;;;;;;;;4983747;28;20051;-83
2021/03/18 12:47:11;;;;;;;5.47;3.65;;;;;;;;;;4979209;28;20561;-81
2021/03/18 12:49:38;;;;;;;5.25;3.47;;;;;;;;;;4984424;28;20599;-83
2021/03/18 12:52:05;;;;;;;5.93;4.22;;;;;;;;;;4982519;28;20054;-84
2021/03/18 12:54:31;;;;;;;6.20;3.90;;;;;;;;;;4985499;28;20049;-82
2021/03/18 12:56:58;;;;;;;6.80;4.65;;;;;;;;;;4980118;28;20039;-82
2021/03/18 12:59:25;;;;;;;7.07;4.65;;;;;;;;;;4990232;28;20051;-83
2021/03/18 13:01:51;;;;;;;6.22;3.28;;;;;;;;;;4985287;28;20046;-83
2021/03/18 13:04:17;;;;;;;5.35;3.65;;;;;;;;;;4985322;28;20125;-84
2021/03/18 13:06:45;;;;;;;6.32;3.83;;;;;;;;;;4982963;28;20063;-83
2021/03/18 13:09:11;;;;;;;5.93;4.10;;;;;;;;;;4987841;28;20589;-83
2021/03/18 13:11:38;;;;;;;6.72;4.03;;;;;;;;;;4992777;28;20509;-83
2021/03/18 13:14:05;;;;;;;5.97;3.90;;;;;;;;;;4990089;28;20047;-84
2021/03/18 13:16:39;;;;;;;9.57;4.43;;;;;;;;;;4989480;28;20136;-86
2021/03/18 13:19:06;;;;;;;6.75;4.03;;;;;;;;;;4981928;28;20042;-83
2021/03/18 13:21:32;;;;;;;5.93;3.78;;;;;;;;;;4984497;28;20054;-83
2021/03/18 13:23:58;;;;;;;5.60;3.78;;;;;;;;;;4983752;28;20043;-81
2021/03/18 13:26:24;;;;;;;6.75;4.10;;;;;;;;;;4982847;28;20081;-82
2021/03/18 13:28:49;;;;;;;7.22;4.85;;;;;;;;;;4980494;28;20054;-83
2021/03/18 13:31:15;;;;;;;7.10;4.60;;;;;;;;;;4981649;28;20114;-81
2021/03/18 13:33:43;;;;;;;5.53;3.78;;;;;;;;;;4980107;28;20051;-81
2021/03/18 13:36:09;;;;;;;6.07;4.53;;;;;;;;;;4980155;28;20049;-82
2021/03/18 13:38:35;;;;;;;8.38;4.53;;;;;;;;;;4982284;28;20047;-82
2021/03/18 13:41:02;;;;;;;6.13;3.78;;;;;;;;;;4981428;28;20411;-84
2021/03/18 13:43:29;;;;;;;5.57;4.07;;;;;;;;;;4982530;28;20051;-84
2021/03/18 13:45:55;;;;;;;5.72;3.67;;;;;;;;;;4981583;28;20057;-85
2021/03/18 13:48:38;;;;;;;6.82;4.10;;;;;;;;;;4981899;28;20100;-84
2021/03/18 13:51:07;;;;;;;7.10;4.32;;;;;;;;;;4978305;28;20053;-84
2021/03/18 13:53:34;;;;;;;6.93;4.40;;;;;;;;;;4982322;28;20043;-83
2021/03/18 13:56:00;;;;;;;9.48;5.10;;;;;;;;;;4988943;28;20054;-82
2021/03/18 13:58:27;;;;;;;7.40;5.15;;;;;;;;;;4984429;28;20094;-83
2021/03/18 14:00:53;;;;;;;9.77;5.50;;;;;;;;;;4982566;28;20047;-84
2021/03/18 14:03:20;;;;;;;6.85;4.75;;;;;;;;;;4979405;28;20065;-83
2021/03/18 14:05:46;;;;;;;7.78;5.45;;;;;;;;;;4985971;28;20051;-84
2021/03/18 14:08:14;;;;;;;7.47;5.45;;;;;;;;;;4982502;28;20050;-82
2021/03/18 14:10:40;;;;;;;8.43;5.30;;;;;;;;;;4980122;28;20042;-81
2021/03/18 14:13:09;;;;;;;9.05;5.40;;;;;;;;;;4983518;28;20055;-80
2021/03/18 14:15:35;;;;;;;11.48;4.72;;;;;;;;;;4980967;28;20495;-82
2021/03/18 14:18:01;;;;;;;7.88;4.43;;;;;;;;;;4996134;28;20043;-82
2021/03/18 14:20:30;;;;;;;8.10;4.43;;;;;;;;;;4983567;28;20047;-83
2021/03/18 14:22:57;;;;;;;7.35;3.90;;;;;;;;;;4985088;28;20054;-82
2021/03/18 14:25:24;;;;;;;7.95;4.20;;;;;;;;;;4982637;28;20051;-83
2021/03/18 14:27:51;;;;;;;7.75;4.63;;;;;;;;;;4982936;28;20050;-83
2021/03/18 14:30:17;;;;;;;6.63;4.18;;;;;;;;;;4982460;28;20073;-84
2021/03/18 14:32:45;;;;;;;5.38;3.72;;;;;;;;;;4980993;28;20156;-84
2021/03/18 14:35:12;;;;;;;5.95;3.65;;;;;;;;;;4984899;28;20051;-85